sensor_id;sensor_type;location;lat;lon;timestamp;temperature;humidity
11922;DHT22;6021;51.182;3.160;2023-04-03T00:01:16;3.60;99.90
11922;DHT22;6021;51.182;3.160;2023-04-03T00:04:07;3.40;99.90
11922;DHT22;6021;51.182;3.160;2023-04-03T00:06:43;3.60;99.90
11922;DHT22;6021;51.182;3.160;2023-04-03T00:09:08;3.40;99.90
11922;DHT22;6021;51.182;3.160;2023-04-03T00:11:45;3.30;99.90
11922;DHT22;6021;51.182;3.160;2023-04-03T00:14:29;3.50;99.90
11922;DHT22;6021;51.182;3.160;2023-04-03T00:17:15;3.30;99.90
11922;DHT22;6021;51.182;3.160;2023-04-03T00:19:52;3.60;99.90
11922;DHT22;6021;51.182;3.160;2023-04-03T00:22:21;3.50;99.90
11922;DHT22;6021;51.182;3.160;2023-04-03T00:24:51;3.10;99.90
11922;DHT22;6021;51.182;3.160;2023-04-03T00:27:41;3.20;99.90
11922;DHT22;6021;51.182;3.160;2023-04-03T00:30:17;3.30;99.90
11922;DHT22;6021;51.182;3.160;2023-04-03T00:32:53;3.50;99.90
11922;DHT22;6021;51.182;3.160;2023-04-03T00:35:35;3.10;99.90
11922;DHT22;6021;51.182;3.160;2023-04-03T00:38:08;3.20;99.90
11922;DHT22;6021;51.182;3.160;2023-04-03T00:40:39;3.40;99.90
11922;DHT22;6021;51.182;3.160;2023-04-03T00:43:19;3.30;99.90
11922;DHT22;6021;51.182;3.160;2023-04-03T00:45:52;3.20;99.90
11922;DHT22;6021;51.182;3.160;2023-04-03T00:48:36;3.20;99.90
11922;DHT22;6021;51.182;3.160;2023-04-03T00:51:17;3.10;99.90
11922;DHT22;6021;51.182;3.160;2023-04-03T00:53:47;3.40;99.90
11922;DHT22;6021;51.182;3.160;2023-04-03T00:56:18;3.20;99.90
11922;DHT22;6021;51.182;3.160;2023-04-03T00:59:13;3.30;99.90
11922;DHT22;6021;51.182;3.160;2023-04-03T01:01:45;3.20;99.90
11922;DHT22;6021;51.182;3.160;2023-04-03T01:07:27;3.30;99.90
11922;DHT22;6021;51.182;3.160;2023-04-03T01:09:59;3.00;99.90
11922;DHT22;6021;51.182;3.160;2023-04-03T01:12:33;3.10;99.90
11922;DHT22;6021;51.182;3.160;2023-04-03T01:15:17;3.10;99.90
11922;DHT22;6021;51.182;3.160;2023-04-03T01:17:52;3.00;99.90
11922;DHT22;6021;51.182;3.160;2023-04-03T01:23:29;2.90;99.90
11922;DHT22;6021;51.182;3.160;2023-04-03T01:26:07;3.20;99.90
11922;DHT22;6021;51.182;3.160;2023-04-03T01:28:37;2.90;99.90
11922;DHT22;6021;51.182;3.160;2023-04-03T01:31:26;2.90;99.90
11922;DHT22;6021;51.182;3.160;2023-04-03T01:34:13;2.90;99.90
11922;DHT22;6021;51.182;3.160;2023-04-03T01:37:04;3.10;99.90
11922;DHT22;6021;51.182;3.160;2023-04-03T01:42:33;3.10;99.90
11922;DHT22;6021;51.182;3.160;2023-04-03T01:45:02;3.00;99.90
11922;DHT22;6021;51.182;3.160;2023-04-03T01:47:44;2.90;99.90
11922;DHT22;6021;51.182;3.160;2023-04-03T01:50:24;3.00;99.90
11922;DHT22;6021;51.182;3.160;2023-04-03T01:52:57;2.90;99.90
11922;DHT22;6021;51.182;3.160;2023-04-03T01:55:27;3.10;99.90
11922;DHT22;6021;51.182;3.160;2023-04-03T01:57:57;2.80;99.90
11922;DHT22;6021;51.182;3.160;2023-04-03T02:00:35;2.80;99.90
11922;DHT22;6021;51.182;3.160;2023-04-03T02:03:03;3.00;99.90
11922;DHT22;6021;51.182;3.160;2023-04-03T02:05:39;2.70;99.90
11922;DHT22;6021;51.182;3.160;2023-04-03T02:08:18;2.70;99.90
11922;DHT22;6021;51.182;3.160;2023-04-03T02:10:47;2.70;99.90
11922;DHT22;6021;51.182;3.160;2023-04-03T02:13:28;2.90;99.90
11922;DHT22;6021;51.182;3.160;2023-04-03T02:15:52;2.60;99.90
11922;DHT22;6021;51.182;3.160;2023-04-03T02:18:27;2.70;99.90
11922;DHT22;6021;51.182;3.160;2023-04-03T02:20:59;2.60;99.90
11922;DHT22;6021;51.182;3.160;2023-04-03T02:23:29;2.70;99.90
11922;DHT22;6021;51.182;3.160;2023-04-03T02:26:11;2.80;99.90
11922;DHT22;6021;51.182;3.160;2023-04-03T02:28:48;2.60;99.90
11922;DHT22;6021;51.182;3.160;2023-04-03T02:31:15;2.70;99.90
11922;DHT22;6021;51.182;3.160;2023-04-03T02:33:45;2.90;99.90
11922;DHT22;6021;51.182;3.160;2023-04-03T02:36:20;2.80;99.90
11922;DHT22;6021;51.182;3.160;2023-04-03T02:38:57;2.90;99.90
11922;DHT22;6021;51.182;3.160;2023-04-03T02:41:31;2.70;99.90
11922;DHT22;6021;51.182;3.160;2023-04-03T02:44:04;2.70;99.90
11922;DHT22;6021;51.182;3.160;2023-04-03T02:46:40;2.80;99.90
11922;DHT22;6021;51.182;3.160;2023-04-03T02:49:22;2.80;99.90
11922;DHT22;6021;51.182;3.160;2023-04-03T02:52:04;2.60;99.90
11922;DHT22;6021;51.182;3.160;2023-04-03T02:54:27;2.70;99.90
11922;DHT22;6021;51.182;3.160;2023-04-03T02:56:59;2.80;99.90
11922;DHT22;6021;51.182;3.160;2023-04-03T02:59:31;2.50;99.90
11922;DHT22;6021;51.182;3.160;2023-04-03T03:02:07;2.70;99.90
11922;DHT22;6021;51.182;3.160;2023-04-03T03:04:45;2.80;99.90
11922;DHT22;6021;51.182;3.160;2023-04-03T03:07:26;2.60;99.90
11922;DHT22;6021;51.182;3.160;2023-04-03T03:12:47;2.60;99.90
11922;DHT22;6021;51.182;3.160;2023-04-03T03:15:21;2.90;99.90
11922;DHT22;6021;51.182;3.160;2023-04-03T03:17:59;2.90;99.90
11922;DHT22;6021;51.182;3.160;2023-04-03T03:20:39;2.70;99.90
11922;DHT22;6021;51.182;3.160;2023-04-03T03:23:11;2.80;99.90
11922;DHT22;6021;51.182;3.160;2023-04-03T03:25:45;2.70;99.90
11922;DHT22;6021;51.182;3.160;2023-04-03T03:28:15;2.60;99.90
11922;DHT22;6021;51.182;3.160;2023-04-03T03:30:58;2.60;99.90
11922;DHT22;6021;51.182;3.160;2023-04-03T03:33:30;2.80;99.90
11922;DHT22;6021;51.182;3.160;2023-04-03T03:36:07;2.60;99.90
11922;DHT22;6021;51.182;3.160;2023-04-03T03:38:38;2.50;99.90
11922;DHT22;6021;51.182;3.160;2023-04-03T03:41:09;2.30;99.90
11922;DHT22;6021;51.182;3.160;2023-04-03T03:43:38;2.60;99.90
11922;DHT22;6021;51.182;3.160;2023-04-03T03:46:09;2.40;99.90
11922;DHT22;6021;51.182;3.160;2023-04-03T03:48:47;2.30;99.90
11922;DHT22;6021;51.182;3.160;2023-04-03T03:51:33;2.40;99.90
11922;DHT22;6021;51.182;3.160;2023-04-03T03:54:03;2.60;99.90
11922;DHT22;6021;51.182;3.160;2023-04-03T03:56:48;2.30;99.90
11922;DHT22;6021;51.182;3.160;2023-04-03T03:59:23;2.30;99.90
11922;DHT22;6021;51.182;3.160;2023-04-03T04:01:52;2.40;99.90
11922;DHT22;6021;51.182;3.160;2023-04-03T04:04:28;2.10;99.90
11922;DHT22;6021;51.182;3.160;2023-04-03T04:07:11;2.20;99.90
11922;DHT22;6021;51.182;3.160;2023-04-03T04:09:41;2.50;99.90
11922;DHT22;6021;51.182;3.160;2023-04-03T04:12:25;2.30;99.90
11922;DHT22;6021;51.182;3.160;2023-04-03T04:15:04;2.20;99.90
11922;DHT22;6021;51.182;3.160;2023-04-03T04:17:36;2.10;99.90
11922;DHT22;6021;51.182;3.160;2023-04-03T04:20:09;2.10;99.90
11922;DHT22;6021;51.182;3.160;2023-04-03T04:22:46;2.20;99.90
11922;DHT22;6021;51.182;3.160;2023-04-03T04:25:21;2.10;99.90
11922;DHT22;6021;51.182;3.160;2023-04-03T04:28:03;2.20;99.90
11922;DHT22;6021;51.182;3.160;2023-04-03T04:30:41;2.20;99.90
11922;DHT22;6021;51.182;3.160;2023-04-03T04:33:10;2.20;99.90
11922;DHT22;6021;51.182;3.160;2023-04-03T04:35:46;2.20;99.90
11922;DHT22;6021;51.182;3.160;2023-04-03T04:38:16;2.20;99.90
11922;DHT22;6021;51.182;3.160;2023-04-03T04:40:47;2.40;99.90
11922;DHT22;6021;51.182;3.160;2023-04-03T04:43:29;2.10;99.90
11922;DHT22;6021;51.182;3.160;2023-04-03T04:46:11;2.20;99.90
11922;DHT22;6021;51.182;3.160;2023-04-03T04:48:44;1.90;99.90
11922;DHT22;6021;51.182;3.160;2023-04-03T04:51:14;2.20;99.90
11922;DHT22;6021;51.182;3.160;2023-04-03T04:53:44;1.90;99.90
11922;DHT22;6021;51.182;3.160;2023-04-03T04:56:14;2.30;99.90
11922;DHT22;6021;51.182;3.160;2023-04-03T04:58:42;1.90;99.90
11922;DHT22;6021;51.182;3.160;2023-04-03T05:01:13;2.00;99.90
11922;DHT22;6021;51.182;3.160;2023-04-03T05:09:28;2.20;99.90
11922;DHT22;6021;51.182;3.160;2023-04-03T05:12:13;2.00;99.90
11922;DHT22;6021;51.182;3.160;2023-04-03T05:14:49;1.90;99.90
11922;DHT22;6021;51.182;3.160;2023-04-03T05:17:31;2.20;99.90
11922;DHT22;6021;51.182;3.160;2023-04-03T05:20:02;1.90;99.90
11922;DHT22;6021;51.182;3.160;2023-04-03T05:22:38;2.00;99.90
11922;DHT22;6021;51.182;3.160;2023-04-03T05:25:12;1.90;99.90
11922;DHT22;6021;51.182;3.160;2023-04-03T05:27:56;2.00;99.90
11922;DHT22;6021;51.182;3.160;2023-04-03T05:33:10;2.00;99.90
11922;DHT22;6021;51.182;3.160;2023-04-03T05:35:47;1.70;99.90
11922;DHT22;6021;51.182;3.160;2023-04-03T05:38:16;1.70;99.90
11922;DHT22;6021;51.182;3.160;2023-04-03T05:40:44;1.70;99.90
11922;DHT22;6021;51.182;3.160;2023-04-03T05:43:13;1.80;99.90
11922;DHT22;6021;51.182;3.160;2023-04-03T05:45:42;1.80;99.90
11922;DHT22;6021;51.182;3.160;2023-04-03T05:48:10;1.90;99.90
11922;DHT22;6021;51.182;3.160;2023-04-03T05:50:39;2.00;99.90
11922;DHT22;6021;51.182;3.160;2023-04-03T05:53:24;1.80;99.90
11922;DHT22;6021;51.182;3.160;2023-04-03T05:55:52;1.80;99.90
11922;DHT22;6021;51.182;3.160;2023-04-03T05:58:21;1.70;99.90
11922;DHT22;6021;51.182;3.160;2023-04-03T06:00:50;1.80;99.90
11922;DHT22;6021;51.182;3.160;2023-04-03T06:03:19;2.10;99.90
11922;DHT22;6021;51.182;3.160;2023-04-03T06:05:47;1.80;99.90
11922;DHT22;6021;51.182;3.160;2023-04-03T06:08:16;1.80;99.90
11922;DHT22;6021;51.182;3.160;2023-04-03T06:10:44;1.90;99.90
11922;DHT22;6021;51.182;3.160;2023-04-03T06:13:13;2.00;99.90
11922;DHT22;6021;51.182;3.160;2023-04-03T06:15:42;1.90;99.90
11922;DHT22;6021;51.182;3.160;2023-04-03T06:18:11;2.10;99.90
11922;DHT22;6021;51.182;3.160;2023-04-03T06:20:39;2.10;99.90
11922;DHT22;6021;51.182;3.160;2023-04-03T06:23:08;2.10;99.90
11922;DHT22;6021;51.182;3.160;2023-04-03T06:25:37;2.20;99.90
11922;DHT22;6021;51.182;3.160;2023-04-03T06:28:05;2.30;99.90
11922;DHT22;6021;51.182;3.160;2023-04-03T06:30:36;2.30;99.90
11922;DHT22;6021;51.182;3.160;2023-04-03T06:33:04;2.40;99.90
11922;DHT22;6021;51.182;3.160;2023-04-03T06:35:32;2.30;99.90
11922;DHT22;6021;51.182;3.160;2023-04-03T06:38:02;2.30;99.90
11922;DHT22;6021;51.182;3.160;2023-04-03T06:40:32;2.30;99.90
11922;DHT22;6021;51.182;3.160;2023-04-03T06:43:00;2.30;99.90
11922;DHT22;6021;51.182;3.160;2023-04-03T06:45:29;2.30;99.90
11922;DHT22;6021;51.182;3.160;2023-04-03T06:47:57;2.60;99.90
11922;DHT22;6021;51.182;3.160;2023-04-03T06:50:26;2.80;99.90
11922;DHT22;6021;51.182;3.160;2023-04-03T06:52:56;3.00;99.90
11922;DHT22;6021;51.182;3.160;2023-04-03T06:55:30;2.70;99.90
11922;DHT22;6021;51.182;3.160;2023-04-03T06:58:04;3.00;99.90
11922;DHT22;6021;51.182;3.160;2023-04-03T07:00:36;3.30;99.90
11922;DHT22;6021;51.182;3.160;2023-04-03T07:03:04;3.30;99.90
11922;DHT22;6021;51.182;3.160;2023-04-03T07:05:35;3.50;99.90
11922;DHT22;6021;51.182;3.160;2023-04-03T07:08:04;3.50;99.90
11922;DHT22;6021;51.182;3.160;2023-04-03T07:10:32;3.70;99.90
11922;DHT22;6021;51.182;3.160;2023-04-03T07:13:01;3.80;99.90
11922;DHT22;6021;51.182;3.160;2023-04-03T07:15:29;3.90;99.90
11922;DHT22;6021;51.182;3.160;2023-04-03T07:17:57;4.00;99.90
11922;DHT22;6021;51.182;3.160;2023-04-03T07:20:26;4.20;99.90
11922;DHT22;6021;51.182;3.160;2023-04-03T07:22:55;4.90;99.90
11922;DHT22;6021;51.182;3.160;2023-04-03T07:25:23;5.80;99.90
11922;DHT22;6021;51.182;3.160;2023-04-03T07:27:51;6.70;99.90
11922;DHT22;6021;51.182;3.160;2023-04-03T07:30:21;7.70;99.90
11922;DHT22;6021;51.182;3.160;2023-04-03T07:32:50;8.20;99.90
11922;DHT22;6021;51.182;3.160;2023-04-03T07:35:18;8.10;99.90
11922;DHT22;6021;51.182;3.160;2023-04-03T07:37:47;8.20;99.90
11922;DHT22;6021;51.182;3.160;2023-04-03T07:40:15;8.10;99.90
11922;DHT22;6021;51.182;3.160;2023-04-03T07:42:43;8.40;99.90
11922;DHT22;6021;51.182;3.160;2023-04-03T07:45:12;8.50;99.90
11922;DHT22;6021;51.182;3.160;2023-04-03T07:47:40;8.30;57.90
11922;DHT22;6021;51.182;3.160;2023-04-03T07:50:09;7.90;15.60
11922;DHT22;6021;51.182;3.160;2023-04-03T07:52:37;7.40;20.00
11922;DHT22;6021;51.182;3.160;2023-04-03T07:55:06;7.30;38.80
11922;DHT22;6021;51.182;3.160;2023-04-03T07:57:35;7.40;53.30
11922;DHT22;6021;51.182;3.160;2023-04-03T08:00:04;7.30;94.80
11922;DHT22;6021;51.182;3.160;2023-04-03T08:02:33;7.20;39.40
11922;DHT22;6021;51.182;3.160;2023-04-03T08:05:01;7.10;39.40
11922;DHT22;6021;51.182;3.160;2023-04-03T08:07:29;7.90;7.50
11922;DHT22;6021;51.182;3.160;2023-04-03T08:09:58;7.80;1.00
11922;DHT22;6021;51.182;3.160;2023-04-03T08:12:26;8.20;1.00
11922;DHT22;6021;51.182;3.160;2023-04-03T08:14:55;8.20;1.00
11922;DHT22;6021;51.182;3.160;2023-04-03T08:17:31;8.20;1.00
11922;DHT22;6021;51.182;3.160;2023-04-03T08:20:02;8.20;1.00
11922;DHT22;6021;51.182;3.160;2023-04-03T08:22:35;7.90;1.00
11922;DHT22;6021;51.182;3.160;2023-04-03T08:25:12;8.10;1.00
11922;DHT22;6021;51.182;3.160;2023-04-03T08:27:53;8.20;1.00
11922;DHT22;6021;51.182;3.160;2023-04-03T08:30:29;8.30;1.00
11922;DHT22;6021;51.182;3.160;2023-04-03T08:33:00;8.50;1.00
11922;DHT22;6021;51.182;3.160;2023-04-03T08:35:43;8.40;1.00
11922;DHT22;6021;51.182;3.160;2023-04-03T08:38:12;8.60;1.00
11922;DHT22;6021;51.182;3.160;2023-04-03T08:40:43;8.90;1.00
11922;DHT22;6021;51.182;3.160;2023-04-03T08:43:40;9.00;1.00
11922;DHT22;6021;51.182;3.160;2023-04-03T08:46:05;9.20;1.00
11922;DHT22;6021;51.182;3.160;2023-04-03T08:48:41;9.40;1.00
11922;DHT22;6021;51.182;3.160;2023-04-03T08:51:23;9.90;1.00
11922;DHT22;6021;51.182;3.160;2023-04-03T08:54:04;9.70;1.00
11922;DHT22;6021;51.182;3.160;2023-04-03T08:56:39;9.30;1.00
11922;DHT22;6021;51.182;3.160;2023-04-03T08:59:13;9.60;1.00
11922;DHT22;6021;51.182;3.160;2023-04-03T09:01:44;10.20;1.00
11922;DHT22;6021;51.182;3.160;2023-04-03T09:04:24;10.30;1.00
11922;DHT22;6021;51.182;3.160;2023-04-03T09:07:13;10.30;1.00
11922;DHT22;6021;51.182;3.160;2023-04-03T09:09:40;10.30;1.00
11922;DHT22;6021;51.182;3.160;2023-04-03T09:12:27;10.20;1.00
11922;DHT22;6021;51.182;3.160;2023-04-03T09:15:08;9.90;1.00
11922;DHT22;6021;51.182;3.160;2023-04-03T09:20:32;10.60;1.00
11922;DHT22;6021;51.182;3.160;2023-04-03T09:23:12;10.90;1.00
11922;DHT22;6021;51.182;3.160;2023-04-03T09:25:44;10.70;1.00
11922;DHT22;6021;51.182;3.160;2023-04-03T09:28:16;10.50;1.00
11922;DHT22;6021;51.182;3.160;2023-04-03T09:30:55;10.40;1.00
11922;DHT22;6021;51.182;3.160;2023-04-03T09:33:30;10.20;1.00
11922;DHT22;6021;51.182;3.160;2023-04-03T09:36:06;10.00;1.00
11922;DHT22;6021;51.182;3.160;2023-04-03T09:38:55;10.20;1.00
11922;DHT22;6021;51.182;3.160;2023-04-03T09:41:19;10.40;1.00
11922;DHT22;6021;51.182;3.160;2023-04-03T09:43:58;10.60;1.00
11922;DHT22;6021;51.182;3.160;2023-04-03T09:46:36;10.70;1.00
11922;DHT22;6021;51.182;3.160;2023-04-03T09:49:19;10.80;1.00
11922;DHT22;6021;51.182;3.160;2023-04-03T09:51:44;11.20;1.00
11922;DHT22;6021;51.182;3.160;2023-04-03T09:54:36;11.00;1.00
11922;DHT22;6021;51.182;3.160;2023-04-03T09:57:04;11.40;1.00
11922;DHT22;6021;51.182;3.160;2023-04-03T09:59:59;11.80;1.00
11922;DHT22;6021;51.182;3.160;2023-04-03T10:02:39;12.20;1.00
11922;DHT22;6021;51.182;3.160;2023-04-03T10:05:31;12.40;1.00
11922;DHT22;6021;51.182;3.160;2023-04-03T10:10:52;12.10;1.00
11922;DHT22;6021;51.182;3.160;2023-04-03T10:13:21;12.20;1.00
11922;DHT22;6021;51.182;3.160;2023-04-03T10:15:59;12.50;1.00
11922;DHT22;6021;51.182;3.160;2023-04-03T10:27:16;12.30;1.00
11922;DHT22;6021;51.182;3.160;2023-04-03T10:43:48;11.40;1.00
11922;DHT22;6021;51.182;3.160;2023-04-03T10:46:36;11.30;1.00
11922;DHT22;6021;51.182;3.160;2023-04-03T10:52:13;10.50;1.00
11922;DHT22;6021;51.182;3.160;2023-04-03T10:57:32;11.00;1.00
11922;DHT22;6021;51.182;3.160;2023-04-03T11:00:14;11.00;1.00
11922;DHT22;6021;51.182;3.160;2023-04-03T11:02:51;11.20;1.00
11922;DHT22;6021;51.182;3.160;2023-04-03T11:08:29;11.10;1.00
11922;DHT22;6021;51.182;3.160;2023-04-03T11:11:09;11.60;1.00
11922;DHT22;6021;51.182;3.160;2023-04-03T11:14:00;11.70;1.00
11922;DHT22;6021;51.182;3.160;2023-04-03T11:16:38;11.90;1.00
11922;DHT22;6021;51.182;3.160;2023-04-03T11:22:33;11.90;1.00
11922;DHT22;6021;51.182;3.160;2023-04-03T11:27:57;12.00;1.00
11922;DHT22;6021;51.182;3.160;2023-04-03T11:30:54;12.20;1.00
11922;DHT22;6021;51.182;3.160;2023-04-03T11:33:46;12.00;1.00
11922;DHT22;6021;51.182;3.160;2023-04-03T11:39:22;11.00;1.00
11922;DHT22;6021;51.182;3.160;2023-04-03T11:41:54;10.70;1.00
11922;DHT22;6021;51.182;3.160;2023-04-03T11:44:37;10.70;1.00
11922;DHT22;6021;51.182;3.160;2023-04-03T11:47:11;10.80;1.00
11922;DHT22;6021;51.182;3.160;2023-04-03T11:49:54;10.80;1.00
11922;DHT22;6021;51.182;3.160;2023-04-03T12:01:08;11.60;1.00
11922;DHT22;6021;51.182;3.160;2023-04-03T12:08:57;11.70;1.00
11922;DHT22;6021;51.182;3.160;2023-04-03T12:11:31;11.70;1.00
11922;DHT22;6021;51.182;3.160;2023-04-03T12:16:57;11.60;1.00
11922;DHT22;6021;51.182;3.160;2023-04-03T12:19:40;11.60;1.00
11922;DHT22;6021;51.182;3.160;2023-04-03T12:22:17;11.40;1.00
11922;DHT22;6021;51.182;3.160;2023-04-03T12:24:55;11.40;1.00
11922;DHT22;6021;51.182;3.160;2023-04-03T12:30:22;11.50;1.00
11922;DHT22;6021;51.182;3.160;2023-04-03T12:33:23;11.20;1.00
11922;DHT22;6021;51.182;3.160;2023-04-03T12:41:36;12.10;1.00
11922;DHT22;6021;51.182;3.160;2023-04-03T12:44:37;12.00;1.00
11922;DHT22;6021;51.182;3.160;2023-04-03T12:47:29;11.80;1.00
11922;DHT22;6021;51.182;3.160;2023-04-03T12:50:00;11.80;1.00
11922;DHT22;6021;51.182;3.160;2023-04-03T12:52:45;11.70;1.00
11922;DHT22;6021;51.182;3.160;2023-04-03T12:55:23;11.40;1.00
11922;DHT22;6021;51.182;3.160;2023-04-03T12:58:15;11.50;1.00
11922;DHT22;6021;51.182;3.160;2023-04-03T13:00:46;11.80;1.00
11922;DHT22;6021;51.182;3.160;2023-04-03T13:03:21;12.00;1.00
11922;DHT22;6021;51.182;3.160;2023-04-03T13:11:49;12.30;1.00
11922;DHT22;6021;51.182;3.160;2023-04-03T13:16:58;11.80;1.00
11922;DHT22;6021;51.182;3.160;2023-04-03T13:19:29;11.80;1.00
11922;DHT22;6021;51.182;3.160;2023-04-03T13:22:11;11.80;1.00
11922;DHT22;6021;51.182;3.160;2023-04-03T13:24:55;11.90;1.00
11922;DHT22;6021;51.182;3.160;2023-04-03T13:27:15;11.50;1.00
11922;DHT22;6021;51.182;3.160;2023-04-03T13:29:50;11.60;1.00
11922;DHT22;6021;51.182;3.160;2023-04-03T13:32:26;11.50;1.00
11922;DHT22;6021;51.182;3.160;2023-04-03T13:34:58;11.90;1.00
11922;DHT22;6021;51.182;3.160;2023-04-03T13:37:34;11.90;1.00
11922;DHT22;6021;51.182;3.160;2023-04-03T13:40:14;11.80;1.00
11922;DHT22;6021;51.182;3.160;2023-04-03T13:42:58;11.80;1.00
11922;DHT22;6021;51.182;3.160;2023-04-03T13:45:35;12.20;1.00
11922;DHT22;6021;51.182;3.160;2023-04-03T13:48:11;12.10;1.00
11922;DHT22;6021;51.182;3.160;2023-04-03T13:53:31;12.30;1.00
11922;DHT22;6021;51.182;3.160;2023-04-03T13:58:51;12.10;1.00
11922;DHT22;6021;51.182;3.160;2023-04-03T14:01:20;11.90;1.00
11922;DHT22;6021;51.182;3.160;2023-04-03T14:04:10;11.90;1.00
11922;DHT22;6021;51.182;3.160;2023-04-03T14:06:47;11.80;1.00
11922;DHT22;6021;51.182;3.160;2023-04-03T14:09:23;11.70;1.00
11922;DHT22;6021;51.182;3.160;2023-04-03T14:12:21;11.60;1.00
11922;DHT22;6021;51.182;3.160;2023-04-03T14:14:46;11.90;1.00
11922;DHT22;6021;51.182;3.160;2023-04-03T14:17:24;11.60;1.00
11922;DHT22;6021;51.182;3.160;2023-04-03T14:19:58;11.40;1.00
11922;DHT22;6021;51.182;3.160;2023-04-03T14:25:26;11.20;1.00
11922;DHT22;6021;51.182;3.160;2023-04-03T14:28:22;11.00;1.00
11922;DHT22;6021;51.182;3.160;2023-04-03T14:30:50;11.00;1.00
11922;DHT22;6021;51.182;3.160;2023-04-03T14:33:33;11.00;1.00
11922;DHT22;6021;51.182;3.160;2023-04-03T14:36:19;11.00;1.00
11922;DHT22;6021;51.182;3.160;2023-04-03T14:38:56;10.80;1.00
11922;DHT22;6021;51.182;3.160;2023-04-03T14:41:41;10.70;1.00
11922;DHT22;6021;51.182;3.160;2023-04-03T14:44:13;10.90;1.00
11922;DHT22;6021;51.182;3.160;2023-04-03T14:46:49;11.30;1.00
11922;DHT22;6021;51.182;3.160;2023-04-03T14:49:21;10.90;1.00
11922;DHT22;6021;51.182;3.160;2023-04-03T14:51:56;10.80;1.00
11922;DHT22;6021;51.182;3.160;2023-04-03T14:54:40;10.80;1.00
11922;DHT22;6021;51.182;3.160;2023-04-03T14:57:13;10.80;1.00
11922;DHT22;6021;51.182;3.160;2023-04-03T14:59:49;10.60;1.00
11922;DHT22;6021;51.182;3.160;2023-04-03T15:02:41;10.70;1.00
11922;DHT22;6021;51.182;3.160;2023-04-03T15:05:21;10.70;1.00
11922;DHT22;6021;51.182;3.160;2023-04-03T15:07:56;10.90;1.00
11922;DHT22;6021;51.182;3.160;2023-04-03T15:10:30;10.70;1.00
11922;DHT22;6021;51.182;3.160;2023-04-03T15:13:08;10.70;1.00
11922;DHT22;6021;51.182;3.160;2023-04-03T15:15:41;10.70;1.00
11922;DHT22;6021;51.182;3.160;2023-04-03T15:18:38;10.70;1.00
11922;DHT22;6021;51.182;3.160;2023-04-03T15:21:07;10.70;1.00
11922;DHT22;6021;51.182;3.160;2023-04-03T15:23:47;10.60;1.00
11922;DHT22;6021;51.182;3.160;2023-04-03T15:26:26;10.80;1.00
11922;DHT22;6021;51.182;3.160;2023-04-03T15:28:58;10.60;1.00
11922;DHT22;6021;51.182;3.160;2023-04-03T15:31:39;10.60;1.00
11922;DHT22;6021;51.182;3.160;2023-04-03T15:34:19;10.50;1.00
11922;DHT22;6021;51.182;3.160;2023-04-03T15:36:49;10.40;1.00
11922;DHT22;6021;51.182;3.160;2023-04-03T15:39:24;10.40;1.00
11922;DHT22;6021;51.182;3.160;2023-04-03T15:41:53;10.30;1.00
11922;DHT22;6021;51.182;3.160;2023-04-03T15:44:29;10.40;1.00
11922;DHT22;6021;51.182;3.160;2023-04-03T15:47:11;10.60;1.00
11922;DHT22;6021;51.182;3.160;2023-04-03T15:49:47;10.30;1.00
11922;DHT22;6021;51.182;3.160;2023-04-03T15:52:27;10.20;1.00
11922;DHT22;6021;51.182;3.160;2023-04-03T15:54:59;10.50;1.00
11922;DHT22;6021;51.182;3.160;2023-04-03T15:57:35;10.10;1.00
11922;DHT22;6021;51.182;3.160;2023-04-03T16:00:06;10.10;1.00
11922;DHT22;6021;51.182;3.160;2023-04-03T16:02:38;10.10;1.00
11922;DHT22;6021;51.182;3.160;2023-04-03T16:08:03;10.00;1.00
11922;DHT22;6021;51.182;3.160;2023-04-03T16:10:43;10.00;1.00
11922;DHT22;6021;51.182;3.160;2023-04-03T16:13:18;10.00;1.00
11922;DHT22;6021;51.182;3.160;2023-04-03T16:15:54;10.20;1.00
11922;DHT22;6021;51.182;3.160;2023-04-03T16:18:34;10.20;1.00
11922;DHT22;6021;51.182;3.160;2023-04-03T16:21:12;10.00;1.00
11922;DHT22;6021;51.182;3.160;2023-04-03T16:23:48;10.00;1.00
11922;DHT22;6021;51.182;3.160;2023-04-03T16:26:17;9.90;1.00
11922;DHT22;6021;51.182;3.160;2023-04-03T16:28:48;10.00;1.00
11922;DHT22;6021;51.182;3.160;2023-04-03T16:31:17;10.20;1.00
11922;DHT22;6021;51.182;3.160;2023-04-03T16:33:45;9.90;1.00
11922;DHT22;6021;51.182;3.160;2023-04-03T16:36:14;10.10;1.00
11922;DHT22;6021;51.182;3.160;2023-04-03T16:38:42;10.00;1.00
11922;DHT22;6021;51.182;3.160;2023-04-03T16:41:11;9.80;1.00
11922;DHT22;6021;51.182;3.160;2023-04-03T16:43:39;9.80;1.00
11922;DHT22;6021;51.182;3.160;2023-04-03T16:46:08;9.70;1.00
11922;DHT22;6021;51.182;3.160;2023-04-03T16:48:36;9.70;1.00
11922;DHT22;6021;51.182;3.160;2023-04-03T16:51:05;9.60;1.00
11922;DHT22;6021;51.182;3.160;2023-04-03T16:53:33;9.70;1.00
11922;DHT22;6021;51.182;3.160;2023-04-03T16:56:02;9.40;1.00
11922;DHT22;6021;51.182;3.160;2023-04-03T16:58:31;9.70;1.00
11922;DHT22;6021;51.182;3.160;2023-04-03T17:01:11;9.60;1.00
11922;DHT22;6021;51.182;3.160;2023-04-03T17:03:39;9.40;1.00
11922;DHT22;6021;51.182;3.160;2023-04-03T17:06:09;9.40;1.00
11922;DHT22;6021;51.182;3.160;2023-04-03T17:08:40;9.40;1.00
11922;DHT22;6021;51.182;3.160;2023-04-03T17:11:08;9.40;1.00
11922;DHT22;6021;51.182;3.160;2023-04-03T17:13:37;9.40;1.00
11922;DHT22;6021;51.182;3.160;2023-04-03T17:16:07;9.50;1.00
11922;DHT22;6021;51.182;3.160;2023-04-03T17:18:37;9.40;1.00
11922;DHT22;6021;51.182;3.160;2023-04-03T17:21:05;9.40;1.00
11922;DHT22;6021;51.182;3.160;2023-04-03T17:23:35;9.40;1.00
11922;DHT22;6021;51.182;3.160;2023-04-03T17:26:04;9.40;1.00
11922;DHT22;6021;51.182;3.160;2023-04-03T17:28:33;9.40;1.00
11922;DHT22;6021;51.182;3.160;2023-04-03T17:31:02;9.20;1.00
11922;DHT22;6021;51.182;3.160;2023-04-03T17:33:31;9.40;1.00
11922;DHT22;6021;51.182;3.160;2023-04-03T17:36:01;9.10;1.00
11922;DHT22;6021;51.182;3.160;2023-04-03T17:38:31;9.10;1.00
11922;DHT22;6021;51.182;3.160;2023-04-03T17:41:02;9.10;1.00
11922;DHT22;6021;51.182;3.160;2023-04-03T17:43:31;8.90;1.00
11922;DHT22;6021;51.182;3.160;2023-04-03T17:46:02;8.90;1.00
11922;DHT22;6021;51.182;3.160;2023-04-03T17:48:34;8.90;1.00
11922;DHT22;6021;51.182;3.160;2023-04-03T17:51:13;8.80;1.00
11922;DHT22;6021;51.182;3.160;2023-04-03T17:53:46;8.70;1.00
11922;DHT22;6021;51.182;3.160;2023-04-03T17:56:18;8.60;1.00
11922;DHT22;6021;51.182;3.160;2023-04-03T17:58:46;8.60;1.00
11922;DHT22;6021;51.182;3.160;2023-04-03T18:01:23;8.80;1.00
11922;DHT22;6021;51.182;3.160;2023-04-03T18:03:54;8.50;1.00
11922;DHT22;6021;51.182;3.160;2023-04-03T18:06:25;8.30;1.00
11922;DHT22;6021;51.182;3.160;2023-04-03T18:08:56;8.50;1.00
11922;DHT22;6021;51.182;3.160;2023-04-03T18:11:26;8.20;1.00
11922;DHT22;6021;51.182;3.160;2023-04-03T18:13:57;8.10;1.00
11922;DHT22;6021;51.182;3.160;2023-04-03T18:16:28;8.20;1.00
11922;DHT22;6021;51.182;3.160;2023-04-03T18:18:56;8.20;1.00
11922;DHT22;6021;51.182;3.160;2023-04-03T18:21:24;8.20;1.00
11922;DHT22;6021;51.182;3.160;2023-04-03T18:23:54;7.90;1.00
11922;DHT22;6021;51.182;3.160;2023-04-03T18:26:25;7.90;1.00
11922;DHT22;6021;51.182;3.160;2023-04-03T18:28:56;7.90;1.00
11922;DHT22;6021;51.182;3.160;2023-04-03T18:31:26;7.90;1.00
11922;DHT22;6021;51.182;3.160;2023-04-03T18:33:55;7.80;1.00
11922;DHT22;6021;51.182;3.160;2023-04-03T18:36:25;7.90;1.00
11922;DHT22;6021;51.182;3.160;2023-04-03T18:38:55;7.60;1.00
11922;DHT22;6021;51.182;3.160;2023-04-03T18:41:30;7.30;1.00
11922;DHT22;6021;51.182;3.160;2023-04-03T18:43:57;7.20;1.00